Sao Jose Da Lapa, Brazil
Current Conditions -  °F | °C
As of 1:40 PM on Friday 28 Nov 2014 (Local Time) from SBLS Reporting Station
Light Rain Light Rain  
Wind Chill: 70°   Ceiling: 300
Heat Index: 70°   Visibility: 0.62mi
Dew Point: 68°   Wind: 7mph
Humidity: 94%   Direction: NA
Pressure: 30.03"   Gusts: NA
Location:  19.71°S, 43.96°W
Report Text: SBLS 281540Z VRB06KT 1000 -RA BKN003 SCT013 BKN080 21/20 Q1017
Loading
Personal Weather Stations






























Interactive Weather Map New forecast layout! Learn more

10-Day Weather Forecast

Advertisements
Track Severe Weather on mobile